Time;durP1;ratioP1;P1;durP2;ratioP2;P2;SDS_P1;SDS_P2;PMS_P1;PMS_P2;Temp;Humidity;BMP_temperature;BMP_pressure;BME280_temperature;BME280_humidity;BME280_pressure;Samples;Min_cycle;Max_cycle;Signal;HPM_P1;HPM_P2
2024/04/05 00:01:57;;;;;;;9.02;1.85;;;12.60;85.50;;;;;;5022820;28;20105;-66
2024/04/05 00:04:22;;;;;;;8.95;1.75;;;12.60;85.50;;;;;;5026908;28;20376;-66
2024/04/05 00:06:49;;;;;;;7.53;1.98;;;12.50;85.50;;;;;;5032447;28;20080;-66
2024/04/05 00:09:14;;;;;;;9.98;2.20;;;12.50;85.50;;;;;;5033764;28;20930;-65
2024/04/05 00:11:40;;;;;;;9.00;1.92;;;12.50;85.50;;;;;;5023829;28;20088;-66
2024/04/05 00:14:05;;;;;;;10.30;2.25;;;12.60;85.50;;;;;;5033874;28;20025;-65
2024/04/05 00:16:31;;;;;;;11.10;2.20;;;12.50;85.50;;;;;;5044605;28;20055;-65
2024/04/05 00:18:57;;;;;;;9.70;2.00;;;12.50;85.50;;;;;;5030589;28;20076;-67
2024/04/05 00:21:23;;;;;;;8.82;1.98;;;12.50;85.60;;;;;;5035267;28;20040;-64
2024/04/05 00:23:51;;;;;;;11.95;2.38;;;12.50;85.60;;;;;;5034010;28;20030;-65
2024/04/05 00:26:17;;;;;;;13.52;2.33;;;12.50;85.60;;;;;;5038820;28;20025;-65
2024/04/05 00:28:42;;;;;;;9.40;1.85;;;12.50;85.90;;;;;;5032926;28;20021;-65
2024/04/05 00:31:08;;;;;;;8.50;1.88;;;12.50;85.80;;;;;;5021207;28;20121;-66
2024/04/05 00:33:35;;;;;;;7.78;1.77;;;12.50;85.80;;;;;;5022014;28;20092;-65
2024/04/05 00:36:01;;;;;;;10.20;2.80;;;12.50;85.80;;;;;;5033877;28;20544;-64
2024/04/05 00:38:27;;;;;;;6.47;1.73;;;12.50;85.80;;;;;;5030444;28;20065;-64
2024/04/05 00:40:53;;;;;;;10.23;2.40;;;12.60;85.90;;;;;;5036469;28;20013;-64
2024/04/05 00:43:19;;;;;;;9.48;1.85;;;12.60;86.00;;;;;;5032765;28;20452;-64
2024/04/05 00:45:47;;;;;;;7.82;1.83;;;12.60;86.00;;;;;;5032707;28;20077;-64
2024/04/05 00:48:14;;;;;;;8.63;1.60;;;12.60;86.00;;;;;;5022456;28;20022;-64
2024/04/05 00:50:40;;;;;;;7.97;1.67;;;12.60;86.10;;;;;;5033401;28;20430;-66
2024/04/05 00:53:10;;;;;;;7.22;1.70;;;12.60;86.20;;;;;;5035267;28;20557;-65
2024/04/05 00:55:37;;;;;;;12.82;2.22;;;12.60;86.20;;;;;;5031662;28;20026;-65
2024/04/05 00:58:04;;;;;;;9.05;2.15;;;12.60;86.40;;;;;;5036382;28;20045;-65
2024/04/05 01:00:31;;;;;;;7.47;1.70;;;12.60;86.60;;;;;;5036413;28;22285;-66
2024/04/05 01:02:57;;;;;;;6.60;1.85;;;12.60;86.70;;;;;;5028391;28;20095;-66
2024/04/05 01:05:23;;;;;;;7.18;1.45;;;12.60;86.70;;;;;;5033138;28;20029;-66
2024/04/05 01:07:50;;;;;;;4.57;1.50;;;12.70;86.70;;;;;;5029382;28;20049;-66
2024/04/05 01:10:16;;;;;;;6.25;1.58;;;12.70;86.70;;;;;;5029523;28;20032;-66
2024/04/05 01:12:42;;;;;;;5.45;1.75;;;12.70;86.80;;;;;;5035689;28;20381;-64
2024/04/05 01:15:07;;;;;;;6.43;1.42;;;12.80;86.90;;;;;;5030744;28;20506;-65
2024/04/05 01:17:35;;;;;;;6.93;1.70;;;12.80;86.80;;;;;;5031600;28;20056;-66
2024/04/05 01:20:03;;;;;;;2.97;1.15;;;12.80;86.80;;;;;;5041704;28;20025;-65
2024/04/05 01:22:34;;;;;;;7.43;1.83;;;12.80;86.90;;;;;;5026105;28;20503;-65
2024/04/05 01:25:00;;;;;;;6.30;1.70;;;12.80;86.90;;;;;;5031799;28;20095;-65
2024/04/05 01:27:25;;;;;;;5.95;1.48;;;12.90;87.00;;;;;;5029117;28;20479;-66
2024/04/05 01:29:51;;;;;;;7.93;1.92;;;12.90;87.00;;;;;;5036980;28;20048;-65
2024/04/05 01:32:17;;;;;;;8.02;1.60;;;12.90;87.20;;;;;;5034417;28;20383;-65
2024/04/05 01:34:42;;;;;;;3.30;1.27;;;13.00;87.30;;;;;;5038910;28;20162;-65
2024/04/05 01:37:10;;;;;;;4.78;1.38;;;13.00;87.30;;;;;;5033550;28;20056;-65
2024/04/05 01:39:35;;;;;;;5.50;1.42;;;13.00;87.30;;;;;;5030528;28;20127;-65
2024/04/05 01:42:01;;;;;;;5.45;1.50;;;13.00;87.30;;;;;;5029363;28;20065;-65
2024/04/05 01:44:26;;;;;;;5.30;1.17;;;13.00;87.30;;;;;;5028590;28;20029;-64
2024/04/05 01:46:52;;;;;;;9.27;1.95;;;13.00;87.30;;;;;;5025072;28;20029;-65
2024/04/05 01:49:17;;;;;;;8.55;1.75;;;13.00;87.50;;;;;;5037188;28;20024;-65
2024/04/05 01:51:43;;;;;;;6.78;1.83;;;13.00;87.70;;;;;;5030592;28;20031;-64
2024/04/05 01:54:09;;;;;;;10.98;2.40;;;13.00;87.80;;;;;;5030028;28;20040;-63
2024/04/05 01:56:34;;;;;;;9.68;2.70;;;13.00;88.30;;;;;;5030487;28;20060;-65
2024/04/05 01:59:00;;;;;;;12.32;2.22;;;13.00;88.60;;;;;;5030711;28;20017;-65
2024/04/05 02:01:25;;;;;;;11.23;2.72;;;12.90;88.70;;;;;;5017431;28;20041;-65
2024/04/05 02:03:54;;;;;;;8.00;2.10;;;12.90;89.00;;;;;;5022789;28;20029;-66
2024/04/05 02:06:19;;;;;;;8.55;1.90;;;12.90;89.20;;;;;;5039974;28;20574;-66
2024/04/05 02:08:45;;;;;;;12.20;2.00;;;12.90;89.10;;;;;;5037758;28;20025;-66
2024/04/05 02:11:10;;;;;;;10.73;2.47;;;12.90;89.30;;;;;;5031845;28;20196;-65
2024/04/05 02:13:37;;;;;;;9.55;2.05;;;12.90;89.60;;;;;;5028893;28;20028;-66
2024/04/05 02:16:03;;;;;;;6.25;1.77;;;12.90;90.00;;;;;;5031570;28;20060;-66
2024/04/05 02:18:28;;;;;;;6.82;1.60;;;12.90;90.00;;;;;;5020471;28;20125;-64
2024/04/05 02:20:57;;;;;;;10.40;2.17;;;12.90;90.00;;;;;;5019896;28;20408;-66
2024/04/05 02:23:22;;;;;;;7.88;2.50;;;12.90;90.10;;;;;;5032894;28;20021;-66
2024/04/05 02:25:49;;;;;;;6.55;1.63;;;12.90;90.20;;;;;;5027807;28;20032;-66
2024/04/05 02:28:14;;;;;;;8.57;1.80;;;12.90;90.30;;;;;;5030320;28;20065;-64
2024/04/05 02:30:40;;;;;;;12.00;2.20;;;12.90;90.20;;;;;;5031539;28;20575;-66
2024/04/05 02:33:06;;;;;;;11.52;2.00;;;12.90;90.30;;;;;;5033306;28;20047;-65
2024/04/05 02:35:32;;;;;;;4.97;1.52;;;12.90;90.30;;;;;;5024091;28;20033;-65
2024/04/05 02:37:57;;;;;;;6.50;1.80;;;12.90;90.40;;;;;;5014424;28;20038;-64
2024/04/05 02:40:23;;;;;;;7.70;1.95;;;12.80;90.40;;;;;;5033512;28;20052;-65
2024/04/05 02:42:49;;;;;;;14.38;2.22;;;12.90;90.70;;;;;;5034399;28;20502;-65
2024/04/05 02:45:14;;;;;;;7.40;2.30;;;12.80;90.60;;;;;;5037063;28;20068;-65
2024/04/05 02:47:40;;;;;;;8.18;2.30;;;12.80;90.70;;;;;;5029592;28;20025;-65
2024/04/05 02:50:06;;;;;;;7.88;1.85;;;12.80;90.80;;;;;;5035098;28;20021;-66
2024/04/05 02:52:32;;;;;;;8.35;2.00;;;12.80;90.80;;;;;;5043492;28;20579;-64
2024/04/05 02:54:58;;;;;;;9.80;1.65;;;12.80;90.80;;;;;;5023075;28;20107;-66
2024/04/05 02:57:23;;;;;;;5.70;1.70;;;12.80;90.80;;;;;;5029297;28;20021;-66
2024/04/05 02:59:49;;;;;;;5.10;1.50;;;12.90;90.80;;;;;;5032444;28;20014;-66
2024/04/05 03:02:14;;;;;;;4.82;1.80;;;12.90;90.70;;;;;;5040362;28;20030;-66
2024/04/05 03:04:40;;;;;;;5.40;1.35;;;12.90;90.70;;;;;;5026326;28;20072;-66
2024/04/05 03:07:05;;;;;;;6.38;1.48;;;12.90;90.70;;;;;;5031659;28;20033;-66
2024/04/05 03:09:32;;;;;;;6.35;1.80;;;12.90;90.70;;;;;;5034996;28;20021;-66
2024/04/05 03:11:58;;;;;;;6.18;1.35;;;12.90;90.70;;;;;;5027989;28;20112;-66
2024/04/05 03:14:23;;;;;;;9.15;1.70;;;12.90;90.70;;;;;;5030353;28;20128;-65
2024/04/05 03:16:49;;;;;;;4.55;1.38;;;12.90;90.70;;;;;;5032096;28;20151;-64
2024/04/05 03:19:14;;;;;;;3.67;1.30;;;12.90;90.70;;;;;;5030791;28;20033;-63
2024/04/05 03:21:40;;;;;;;4.32;1.23;;;12.90;90.70;;;;;;5028167;28;20025;-65
2024/04/05 03:24:06;;;;;;;3.83;1.27;;;12.90;90.70;;;;;;5030664;28;20037;-65
2024/04/05 03:26:33;;;;;;;3.78;1.15;;;13.00;90.70;;;;;;5032232;28;20017;-64
2024/04/05 03:28:58;;;;;;;2.97;1.00;;;13.00;90.70;;;;;;5031005;28;20430;-66
2024/04/05 03:31:24;;;;;;;3.42;1.00;;;13.00;90.60;;;;;;5030525;28;20025;-67
2024/04/05 03:33:49;;;;;;;2.88;0.98;;;13.00;90.60;;;;;;5033812;28;20025;-66
2024/04/05 03:36:15;;;;;;;6.00;1.30;;;13.00;90.60;;;;;;5041918;28;20083;-64
2024/04/05 03:38:40;;;;;;;5.65;1.52;;;13.10;90.60;;;;;;5036832;28;20025;-66
2024/04/05 03:41:06;;;;;;;4.25;1.20;;;13.00;90.60;;;;;;5026860;28;20079;-66
2024/04/05 03:43:32;;;;;;;5.63;1.70;;;13.00;90.60;;;;;;5032123;28;20021;-66
2024/04/05 03:45:57;;;;;;;6.38;1.50;;;13.00;90.60;;;;;;5037264;28;20395;-66
2024/04/05 03:48:23;;;;;;;8.73;1.85;;;13.10;90.60;;;;;;5034417;28;20027;-66
2024/04/05 03:50:50;;;;;;;6.60;1.77;;;13.10;90.60;;;;;;5023780;28;20431;-67
2024/04/05 03:53:16;;;;;;;9.52;1.92;;;13.10;90.70;;;;;;5028214;28;20017;-68
2024/04/05 03:55:41;;;;;;;11.43;2.78;;;13.10;90.70;;;;;;5030941;28;20030;-66
2024/04/05 03:58:07;;;;;;;7.70;2.30;;;13.00;90.90;;;;;;5032290;28;20419;-65
2024/04/05 04:00:32;;;;;;;9.85;2.05;;;13.00;91.10;;;;;;5027534;28;20425;-65
2024/04/05 04:02:58;;;;;;;9.80;1.90;;;13.00;91.20;;;;;;5037577;28;20436;-65
2024/04/05 04:05:24;;;;;;;9.70;1.90;;;13.00;91.20;;;;;;5026724;28;20029;-66
2024/04/05 04:07:50;;;;;;;11.38;2.03;;;13.00;91.30;;;;;;5022802;28;20059;-65
2024/04/05 04:10:15;;;;;;;12.23;2.30;;;13.00;91.30;;;;;;5023518;28;20029;-64
2024/04/05 04:12:41;;;;;;;9.15;2.40;;;13.00;91.40;;;;;;5035937;28;20453;-67
2024/04/05 04:15:11;;;;;;;9.43;2.53;;;13.00;91.50;;;;;;5033267;28;20104;-66
2024/04/05 04:17:36;;;;;;;11.30;2.40;;;13.00;91.70;;;;;;5026264;28;20060;-66
2024/04/05 04:20:04;;;;;;;8.35;1.73;;;13.00;91.70;;;;;;5026657;28;20798;-66
2024/04/05 04:22:32;;;;;;;5.85;1.80;;;13.00;91.70;;;;;;5030281;28;20021;-64
2024/04/05 04:24:57;;;;;;;5.43;1.90;;;13.00;91.80;;;;;;5025230;28;20381;-65
2024/04/05 04:27:23;;;;;;;6.05;1.65;;;13.00;91.80;;;;;;5026375;28;20040;-65
2024/04/05 04:29:49;;;;;;;8.20;1.75;;;13.00;91.90;;;;;;5027924;28;20033;-67
2024/04/05 04:32:15;;;;;;;3.92;1.50;;;13.00;92.00;;;;;;5031215;28;20018;-66
2024/04/05 04:34:40;;;;;;;6.20;1.30;;;13.00;92.00;;;;;;5026028;28;20021;-65
2024/04/05 04:37:06;;;;;;;8.27;1.67;;;13.10;92.00;;;;;;5026250;28;20403;-66
2024/04/05 04:39:32;;;;;;;6.95;1.80;;;13.10;91.90;;;;;;5028445;28;20033;-66
2024/04/05 04:41:57;;;;;;;5.10;1.83;;;13.10;92.00;;;;;;5034818;28;20024;-66
2024/04/05 04:44:23;;;;;;;3.22;1.00;;;13.10;92.00;;;;;;5027522;28;20040;-66
2024/04/05 04:46:48;;;;;;;4.53;1.35;;;13.00;92.10;;;;;;5028030;28;20430;-66
2024/04/05 04:49:15;;;;;;;3.03;1.15;;;13.00;92.10;;;;;;5034567;28;20057;-67
2024/04/05 04:51:40;;;;;;;3.03;1.10;;;13.10;92.20;;;;;;5031030;28;20068;-65
2024/04/05 04:54:06;;;;;;;5.55;1.90;;;13.10;92.20;;;;;;5028643;28;20033;-65
2024/04/05 04:56:32;;;;;;;8.85;2.00;;;13.10;92.30;;;;;;5027119;28;20431;-65
2024/04/05 04:58:58;;;;;;;4.72;1.63;;;13.10;92.50;;;;;;5033370;28;20109;-66
2024/04/05 05:01:24;;;;;;;5.57;1.90;;;13.00;92.60;;;;;;5041697;28;20048;-65
2024/04/05 05:03:50;;;;;;;6.65;1.45;;;13.10;92.60;;;;;;5030557;28;20022;-65
2024/04/05 05:06:16;;;;;;;4.47;1.67;;;13.10;92.60;;;;;;5014400;28;20021;-65
2024/04/05 05:08:42;;;;;;;8.73;1.88;;;13.10;92.80;;;;;;5018792;28;20538;-65
2024/04/05 05:11:07;;;;;;;5.00;1.90;;;13.10;92.70;;;;;;5027674;28;20028;-65
2024/04/05 05:13:33;;;;;;;5.45;1.70;;;13.10;92.80;;;;;;5025326;28;20796;-64
2024/04/05 05:15:58;;;;;;;5.68;1.88;;;13.10;92.90;;;;;;5029885;28;20053;-65
2024/04/05 05:18:24;;;;;;;7.00;1.50;;;13.10;92.90;;;;;;5040671;28;20092;-64
2024/04/05 05:20:53;;;;;;;5.03;1.48;;;13.10;93.00;;;;;;5038149;28;20094;-65
2024/04/05 05:23:18;;;;;;;3.10;1.35;;;13.10;93.00;;;;;;5027763;28;20020;-64
2024/04/05 05:25:45;;;;;;;2.72;1.05;;;13.20;93.10;;;;;;5018315;28;20545;-65
2024/04/05 05:28:11;;;;;;;8.43;1.80;;;13.20;93.00;;;;;;5030803;28;20654;-65
2024/04/05 05:30:37;;;;;;;8.23;1.65;;;13.20;93.10;;;;;;5024192;28;20357;-67
2024/04/05 05:33:08;;;;;;;4.97;1.48;;;13.20;93.20;;;;;;5037671;28;20028;-65
2024/04/05 05:35:33;;;;;;;4.63;1.10;;;13.20;93.30;;;;;;5036179;28;20030;-63
2024/04/05 05:38:00;;;;;;;4.57;1.30;;;13.20;93.40;;;;;;5027155;28;20316;-65
2024/04/05 05:40:26;;;;;;;5.45;1.48;;;13.20;93.40;;;;;;5021891;28;20036;-66
2024/04/05 05:42:52;;;;;;;5.05;1.90;;;13.20;93.50;;;;;;5035675;28;20084;-65
2024/04/05 05:45:18;;;;;;;5.00;1.50;;;13.30;93.50;;;;;;5038811;28;20526;-66
2024/04/05 05:47:44;;;;;;;5.32;1.40;;;13.30;93.60;;;;;;5020468;28;20093;-66
2024/04/05 05:50:09;;;;;;;5.80;1.77;;;13.30;93.60;;;;;;5028675;28;20136;-66
2024/04/05 05:52:35;;;;;;;6.03;1.63;;;13.30;93.80;;;;;;5021389;28;20029;-66
2024/04/05 05:55:01;;;;;;;6.13;1.73;;;13.30;93.90;;;;;;5020178;28;20038;-66
2024/04/05 05:57:27;;;;;;;6.32;1.98;;;13.40;93.90;;;;;;5027935;28;20029;-66
2024/04/05 05:59:52;;;;;;;7.85;1.88;;;13.40;93.90;;;;;;5028576;28;20036;-64
2024/04/05 06:02:20;;;;;;;3.95;1.50;;;13.50;93.90;;;;;;5038184;28;20017;-65
2024/04/05 06:04:45;;;;;;;4.43;1.58;;;13.90;94.00;;;;;;5027193;28;20021;-65
2024/04/05 06:07:11;;;;;;;7.15;1.73;;;14.30;93.40;;;;;;5022559;28;20547;-65
2024/04/05 06:09:36;;;;;;;4.43;1.85;;;14.40;93.10;;;;;;5038684;28;20033;-65
2024/04/05 06:12:02;;;;;;;6.70;1.30;;;14.50;92.60;;;;;;5033894;28;20052;-64
2024/04/05 06:14:28;;;;;;;2.70;1.27;;;14.40;92.50;;;;;;5029243;28;20025;-66
2024/04/05 06:16:54;;;;;;;3.35;1.20;;;14.30;92.60;;;;;;5030039;28;20034;-64
2024/04/05 06:19:19;;;;;;;2.60;0.90;;;14.30;92.80;;;;;;5043435;28;20032;-66
2024/04/05 06:21:45;;;;;;;5.75;1.52;;;14.20;92.90;;;;;;5032661;28;20101;-66
2024/04/05 06:24:11;;;;;;;2.90;1.20;;;14.20;92.90;;;;;;5027619;28;20025;-65
2024/04/05 06:26:36;;;;;;;4.18;1.30;;;14.30;93.00;;;;;;5035060;28;20048;-66
2024/04/05 06:29:02;;;;;;;2.85;1.08;;;14.40;92.90;;;;;;5030713;28;20050;-65
2024/04/05 06:31:28;;;;;;;4.82;1.45;;;14.40;93.00;;;;;;5033273;28;20018;-66
2024/04/05 06:33:54;;;;;;;6.60;1.65;;;14.30;93.00;;;;;;5035151;28;20098;-66
2024/04/05 06:36:20;;;;;;;2.28;1.10;;;14.20;93.10;;;;;;5034634;28;20017;-66
2024/04/05 06:38:46;;;;;;;4.68;1.50;;;14.30;93.30;;;;;;5030155;28;20038;-66
2024/04/05 06:41:11;;;;;;;2.92;1.30;;;14.40;93.50;;;;;;5031221;28;20147;-66
2024/04/05 06:43:37;;;;;;;4.10;1.40;;;14.60;93.30;;;;;;5039145;28;20049;-66
2024/04/05 06:46:07;;;;;;;5.43;1.45;;;14.60;93.00;;;;;;5034724;28;20037;-65
2024/04/05 06:48:34;;;;;;;5.10;1.48;;;14.60;93.00;;;;;;5050185;28;20017;-66
2024/04/05 06:51:00;;;;;;;2.75;1.13;;;14.50;93.10;;;;;;5033235;28;20026;-66
2024/04/05 06:53:29;;;;;;;4.32;1.40;;;14.50;93.20;;;;;;5029391;28;20032;-65
2024/04/05 06:55:55;;;;;;;5.93;1.40;;;14.40;93.40;;;;;;5032035;28;20018;-66
2024/04/05 06:58:21;;;;;;;4.00;1.70;;;14.40;93.50;;;;;;5041405;28;20036;-65
2024/04/05 07:00:47;;;;;;;4.32;1.40;;;14.50;93.60;;;;;;5038835;28;20021;-65
2024/04/05 07:03:13;;;;;;;4.03;1.23;;;14.50;93.60;;;;;;5038890;28;20575;-64
2024/04/05 07:05:42;;;;;;;6.95;1.95;;;14.50;93.60;;;;;;5040110;28;20104;-64
2024/04/05 07:08:08;;;;;;;3.25;1.50;;;14.50;93.70;;;;;;5034270;28;20383;-65
2024/04/05 07:10:34;;;;;;;4.57;1.50;;;14.60;93.70;;;;;;5029133;28;20025;-64
2024/04/05 07:13:00;;;;;;;3.08;1.30;;;14.60;93.70;;;;;;5039842;28;20021;-66
2024/04/05 07:15:26;;;;;;;1.92;1.00;;;14.70;93.70;;;;;;5037562;28;20037;-66
2024/04/05 07:17:52;;;;;;;2.15;0.93;;;14.80;93.60;;;;;;5036701;28;20048;-65
2024/04/05 07:20:24;;;;;;;3.83;1.42;;;14.80;93.50;;;;;;5044271;28;20046;-65
2024/04/05 07:22:52;;;;;;;6.28;1.80;;;14.90;93.50;;;;;;5033652;28;20053;-66
2024/04/05 07:25:20;;;;;;;6.43;2.00;;;15.00;93.50;;;;;;5039199;28;20024;-65
2024/04/05 07:27:49;;;;;;;5.57;1.63;;;15.00;93.60;;;;;;5039552;28;20026;-65
2024/04/05 07:30:15;;;;;;;6.32;1.30;;;15.00;93.50;;;;;;5042971;28;20025;-66
2024/04/05 07:32:41;;;;;;;2.17;0.98;;;15.00;93.50;;;;;;5042516;28;20021;-66
2024/04/05 07:35:07;;;;;;;3.60;1.20;;;15.00;93.40;;;;;;5038559;28;20024;-66
2024/04/05 07:37:33;;;;;;;2.85;1.10;;;15.00;93.40;;;;;;5030124;28;20022;-66
2024/04/05 07:39:59;;;;;;;4.38;1.35;;;15.00;93.40;;;;;;5024833;28;20407;-65
2024/04/05 07:42:26;;;;;;;2.42;1.00;;;15.00;93.50;;;;;;5039789;28;20021;-66
2024/04/05 07:44:57;;;;;;;1.88;0.93;;;15.00;93.50;;;;;;5042381;28;20021;-64
2024/04/05 07:47:22;;;;;;;2.83;1.10;;;15.00;93.40;;;;;;5034966;28;20045;-66
2024/04/05 07:49:52;;;;;;;4.25;1.40;;;15.00;93.50;;;;;;5033907;28;20428;-66
2024/04/05 07:52:20;;;;;;;2.97;1.05;;;15.00;93.70;;;;;;5029986;28;20029;-65
2024/04/05 07:54:46;;;;;;;2.60;1.10;;;14.90;93.70;;;;;;5027227;28;20476;-66
2024/04/05 07:57:12;;;;;;;6.35;1.33;;;14.90;93.80;;;;;;5042671;28;20030;-65
2024/04/05 07:59:38;;;;;;;4.07;1.58;;;14.90;94.00;;;;;;5038435;28;20100;-66
2024/04/05 08:02:04;;;;;;;4.35;1.63;;;14.90;94.00;;;;;;5036915;28;20116;-65
2024/04/05 08:04:30;;;;;;;4.25;1.40;;;15.00;94.00;;;;;;5030160;28;20030;-65
2024/04/05 08:06:57;;;;;;;3.35;1.40;;;15.00;94.00;;;;;;5028240;28;20094;-65
2024/04/05 08:09:24;;;;;;;2.17;1.30;;;15.00;94.00;;;;;;5039873;28;20093;-66
2024/04/05 08:11:49;;;;;;;5.28;1.40;;;15.00;93.90;;;;;;5031260;28;20043;-66
2024/04/05 08:14:15;;;;;;;4.53;1.70;;;15.00;93.90;;;;;;5041858;28;20471;-65
2024/04/05 08:16:40;;;;;;;3.80;1.48;;;15.00;94.10;;;;;;5046805;28;20032;-66
2024/04/05 08:19:06;;;;;;;4.68;1.88;;;15.00;94.20;;;;;;5043455;28;20498;-66
2024/04/05 08:21:31;;;;;;;6.60;1.92;;;14.90;94.30;;;;;;5034088;28;20482;-66
2024/04/05 08:23:57;;;;;;;4.53;1.33;;;14.90;94.30;;;;;;5035308;28;20550;-66
2024/04/05 08:26:23;;;;;;;2.97;1.20;;;14.90;94.40;;;;;;5038906;28;20495;-66
2024/04/05 08:28:48;;;;;;;5.05;1.50;;;15.00;94.30;;;;;;5030057;28;20049;-65
2024/04/05 08:31:14;;;;;;;4.97;1.67;;;15.00;94.30;;;;;;5032829;28;20026;-66
2024/04/05 08:33:40;;;;;;;5.38;1.45;;;14.90;94.20;;;;;;5042296;28;20018;-65
2024/04/05 08:36:06;;;;;;;2.47;1.25;;;14.90;94.20;;;;;;5045189;28;20025;-66
2024/04/05 08:38:31;;;;;;;3.70;1.52;;;14.90;94.30;;;;;;5035790;28;20403;-66
2024/04/05 08:40:57;;;;;;;3.80;1.33;;;14.90;94.40;;;;;;5043874;28;20022;-66
2024/04/05 08:43:26;;;;;;;4.10;1.23;;;14.90;94.40;;;;;;5042776;28;20036;-65
2024/04/05 08:45:52;;;;;;;4.47;1.35;;;14.90;94.40;;;;;;5033043;28;20044;-64
2024/04/05 08:48:20;;;;;;;1.75;1.20;;;14.90;94.40;;;;;;5026734;28;20029;-63
2024/04/05 08:50:47;;;;;;;3.90;1.50;;;14.90;94.40;;;;;;5050068;28;20013;-66
2024/04/05 08:53:12;;;;;;;4.00;1.40;;;14.90;94.40;;;;;;5030506;28;20029;-64
2024/04/05 08:55:40;;;;;;;3.25;1.23;;;14.90;94.50;;;;;;5041093;28;20060;-66
2024/04/05 08:58:06;;;;;;;2.60;1.20;;;14.90;94.40;;;;;;5046366;28;20033;-64
2024/04/05 09:00:32;;;;;;;4.40;1.25;;;15.00;94.40;;;;;;5035160;28;20607;-65
2024/04/05 09:03:00;;;;;;;2.60;1.30;;;15.00;94.30;;;;;;5027743;28;20026;-64
2024/04/05 09:05:25;;;;;;;2.83;1.60;;;15.00;94.30;;;;;;5037629;28;20021;-68
2024/04/05 09:08:06;;;;;;;2.22;1.05;;;15.00;94.20;;;;;;5048267;28;20020;-66
2024/04/05 09:10:31;;;;;;;3.42;1.42;;;15.00;94.20;;;;;;5041261;28;20021;-67
2024/04/05 09:12:58;;;;;;;2.50;1.20;;;15.00;94.10;;;;;;5050904;28;20082;-65
2024/04/05 09:15:25;;;;;;;2.95;1.40;;;15.10;94.10;;;;;;5040198;28;20022;-65
2024/04/05 09:17:51;;;;;;;8.43;1.67;;;15.10;94.00;;;;;;5025194;28;20151;-64
2024/04/05 09:20:24;;;;;;;3.13;1.40;;;15.10;93.90;;;;;;5022420;28;20113;-64
2024/04/05 09:22:57;;;;;;;4.45;1.30;;;15.20;93.80;;;;;;5040321;28;20021;-65
2024/04/05 09:25:23;;;;;;;2.75;1.10;;;15.10;93.60;;;;;;5032247;28;20143;-65
2024/04/05 09:27:48;;;;;;;2.75;1.40;;;15.20;93.70;;;;;;5028974;28;20115;-64
2024/04/05 09:30:15;;;;;;;2.83;1.50;;;15.10;93.60;;;;;;5042726;28;20017;-65
2024/04/05 09:32:41;;;;;;;6.20;1.63;;;15.10;93.60;;;;;;5039570;28;20147;-64
2024/04/05 09:35:09;;;;;;;4.85;1.58;;;15.20;93.70;;;;;;5036152;28;20032;-65
2024/04/05 09:37:35;;;;;;;3.70;1.35;;;15.10;93.80;;;;;;5026542;28;20116;-66
2024/04/05 09:40:04;;;;;;;6.55;1.67;;;15.10;93.80;;;;;;5040454;28;20041;-64
2024/04/05 09:42:30;;;;;;;5.93;1.77;;;15.10;93.80;;;;;;5035087;28;20135;-66
2024/04/05 09:44:56;;;;;;;3.28;1.52;;;15.20;93.80;;;;;;5035231;28;20033;-65
2024/04/05 09:47:29;;;;;;;3.83;1.35;;;15.20;93.90;;;;;;5039091;28;20542;-66
2024/04/05 09:49:54;;;;;;;4.18;1.42;;;15.10;93.90;;;;;;5031264;28;20033;-64
2024/04/05 09:52:33;;;;;;;3.25;1.30;;;15.20;93.90;;;;;;5031815;28;20017;-65
2024/04/05 09:55:00;;;;;;;4.07;1.55;;;15.20;93.90;;;;;;5027000;28;20029;-66
2024/04/05 09:57:28;;;;;;;2.28;1.40;;;15.20;93.90;;;;;;5033443;28;20025;-65
2024/04/05 09:59:56;;;;;;;6.55;1.50;;;15.20;94.00;;;;;;5037056;28;20104;-65
2024/04/05 10:02:22;;;;;;;4.53;1.35;;;15.20;94.00;;;;;;5048754;28;20096;-64
2024/04/05 10:04:48;;;;;;;2.90;1.30;;;15.20;94.00;;;;;;5035254;28;20442;-65
2024/04/05 10:07:14;;;;;;;4.85;1.60;;;15.20;94.00;;;;;;5038112;28;20017;-65
2024/04/05 10:09:40;;;;;;;3.22;1.33;;;15.30;94.00;;;;;;5048677;28;20028;-65
2024/04/05 10:12:13;;;;;;;3.45;1.75;;;15.30;94.10;;;;;;5030650;28;20072;-66
2024/04/05 10:14:40;;;;;;;3.38;1.30;;;15.30;94.10;;;;;;5039055;28;20115;-66
2024/04/05 10:17:08;;;;;;;3.00;1.27;;;15.30;94.10;;;;;;5043787;28;20017;-66
2024/04/05 10:19:38;;;;;;;3.13;1.38;;;15.40;94.10;;;;;;5037401;28;20037;-66
2024/04/05 10:22:11;;;;;;;2.42;1.45;;;15.40;94.00;;;;;;5034199;28;20052;-65
2024/04/05 10:24:37;;;;;;;4.60;1.75;;;15.50;94.00;;;;;;5041890;28;20503;-65
2024/04/05 10:27:09;;;;;;;5.18;1.60;;;15.60;93.90;;;;;;5046793;28;20017;-64
2024/04/05 10:29:34;;;;;;;3.38;1.40;;;15.70;93.80;;;;;;5031234;28;20379;-65
2024/04/05 10:32:09;;;;;;;2.72;1.23;;;15.90;93.70;;;;;;5039207;28;20047;-64
2024/04/05 10:34:35;;;;;;;3.10;1.42;;;15.90;93.60;;;;;;5041208;28;20063;-65
2024/04/05 10:37:04;;;;;;;3.75;1.40;;;16.00;93.60;;;;;;5041147;28;20037;-66
2024/04/05 10:39:29;;;;;;;2.88;1.50;;;16.00;93.50;;;;;;5035325;28;20031;-65
2024/04/05 10:41:55;;;;;;;3.95;1.90;;;16.00;93.50;;;;;;5048605;28;20020;-65
2024/04/05 10:44:21;;;;;;;3.42;1.38;;;16.00;93.50;;;;;;5047782;28;20039;-66
2024/04/05 10:46:48;;;;;;;4.40;1.85;;;16.00;93.50;;;;;;5040047;28;20475;-64
2024/04/05 10:49:19;;;;;;;4.32;1.60;;;16.10;93.50;;;;;;5036154;28;20044;-65
2024/04/05 10:51:46;;;;;;;2.28;1.30;;;16.10;93.50;;;;;;5023826;28;20025;-63
2024/04/05 10:54:16;;;;;;;4.35;1.77;;;16.30;93.40;;;;;;5030042;28;20107;-66
2024/04/05 10:56:44;;;;;;;4.50;1.63;;;16.30;93.30;;;;;;5038869;28;20021;-64
2024/04/05 10:59:10;;;;;;;5.88;1.40;;;16.40;93.20;;;;;;5048761;28;20501;-64
2024/04/05 11:01:37;;;;;;;1.95;1.20;;;16.40;93.00;;;;;;5048648;28;20021;-65
2024/04/05 11:04:04;;;;;;;2.38;1.17;;;16.50;93.30;;;;;;5044491;28;20021;-64
2024/04/05 11:06:30;;;;;;;3.78;1.60;;;16.50;92.90;;;;;;5037944;28;20032;-65
2024/04/05 11:08:56;;;;;;;3.35;1.45;;;16.50;92.70;;;;;;5036713;28;20041;-63
2024/04/05 11:11:22;;;;;;;4.07;1.50;;;16.50;92.60;;;;;;5044469;28;20498;-65
2024/04/05 11:13:48;;;;;;;1.52;1.33;;;16.50;92.60;;;;;;5040605;28;20085;-63
2024/04/05 11:16:16;;;;;;;2.17;1.40;;;16.50;92.50;;;;;;5032893;28;20022;-65
2024/04/05 11:18:42;;;;;;;3.10;1.40;;;16.50;92.40;;;;;;5024266;28;20029;-65
2024/04/05 11:21:15;;;;;;;4.85;2.10;;;16.50;92.50;;;;;;5028498;28;20021;-63
2024/04/05 11:23:49;;;;;;;4.00;1.60;;;16.50;92.40;;;;;;5035936;28;20027;-65
2024/04/05 11:26:20;;;;;;;3.33;1.55;;;16.50;92.20;;;;;;5026111;28;20029;-65
2024/04/05 11:28:45;;;;;;;3.65;1.80;;;16.50;92.20;;;;;;5023341;28;20029;-65
2024/04/05 11:31:11;;;;;;;3.20;1.95;;;16.60;92.10;;;;;;5030160;28;20083;-66
2024/04/05 11:33:37;;;;;;;2.78;1.40;;;16.60;92.00;;;;;;5021551;28;20025;-65
2024/04/05 11:36:02;;;;;;;3.33;1.50;;;16.70;92.00;;;;;;5031696;28;20090;-65
2024/04/05 11:38:29;;;;;;;3.13;1.23;;;16.70;91.90;;;;;;5035835;28;20550;-66
2024/04/05 11:40:54;;;;;;;2.92;1.40;;;16.80;91.80;;;;;;5031976;28;20013;-65
2024/04/05 11:43:20;;;;;;;4.60;2.08;;;16.90;91.70;;;;;;5031393;28;20028;-64
2024/04/05 11:45:46;;;;;;;3.05;1.20;;;16.90;91.40;;;;;;5033882;28;20104;-65
2024/04/05 11:48:11;;;;;;;2.30;1.60;;;16.90;91.40;;;;;;5027103;28;20028;-65
2024/04/05 11:50:37;;;;;;;2.97;1.40;;;16.90;91.30;;;;;;5030211;28;20096;-64
2024/04/05 11:53:03;;;;;;;1.88;1.17;;;16.90;91.20;;;;;;5030910;28;20022;-65
2024/04/05 11:55:29;;;;;;;2.83;1.10;;;16.80;91.20;;;;;;5021763;28;20061;-65
2024/04/05 11:57:55;;;;;;;3.00;1.15;;;16.90;91.20;;;;;;5029268;28;20433;-63
2024/04/05 12:00:21;;;;;;;1.75;0.95;;;16.90;91.30;;;;;;5024775;28;20025;-65
2024/04/05 12:02:46;;;;;;;0.90;0.80;;;16.80;91.30;;;;;;5024734;28;20033;-65
2024/04/05 12:05:12;;;;;;;2.78;1.08;;;16.80;91.40;;;;;;5031561;28;20022;-65
2024/04/05 12:07:38;;;;;;;1.52;0.90;;;16.70;91.40;;;;;;5023194;28;20386;-65
2024/04/05 12:10:03;;;;;;;1.30;0.82;;;16.70;91.50;;;;;;5028683;28;20447;-64
2024/04/05 12:12:30;;;;;;;2.67;0.80;;;16.70;91.50;;;;;;5026556;28;20026;-66
2024/04/05 12:14:56;;;;;;;1.30;0.90;;;16.60;91.90;;;;;;5026458;28;20470;-66
2024/04/05 12:17:22;;;;;;;1.33;1.10;;;16.60;91.60;;;;;;5030789;28;20033;-65
2024/04/05 12:19:48;;;;;;;4.82;1.40;;;16.60;91.70;;;;;;5033715;28;20029;-66
2024/04/05 12:22:14;;;;;;;2.53;1.30;;;16.50;91.70;;;;;;5028232;28;20102;-65
2024/04/05 12:24:40;;;;;;;2.88;1.10;;;16.50;91.70;;;;;;5031418;28;20072;-65
2024/04/05 12:27:05;;;;;;;1.70;0.90;;;16.40;91.70;;;;;;5024806;28;20518;-66
2024/04/05 12:29:31;;;;;;;1.88;1.00;;;16.50;91.70;;;;;;5027985;28;20040;-66
2024/04/05 12:31:56;;;;;;;1.98;0.98;;;16.50;91.70;;;;;;5030128;28;20056;-66
2024/04/05 12:34:23;;;;;;;3.15;0.98;;;16.50;91.70;;;;;;5031946;28;20388;-66
2024/04/05 12:36:50;;;;;;;1.77;0.82;;;16.50;91.70;;;;;;5029937;28;20056;-66
2024/04/05 12:39:25;;;;;;;3.08;1.00;;;16.40;91.60;;;;;;5021991;28;20167;-65
2024/04/05 12:41:52;;;;;;;2.30;0.90;;;16.40;91.70;;;;;;5027540;28;20057;-65